KDXR/DXR METAR and TAF weather

Enter ICAO airport designator
Station Type Date Time Source
KDXR METAR 2021/04/18 01:53 UTC NOAA

KDXR 180153Z 23003KT 10SM OVC065 08/02 A2982 RMK AO2 SLP099 T00830022


Station Type Date Time Source
KDXR Decoded METAR 2021/04/18 01:53 UTC NOAA

DANBURY MUNICIPAL AIRPORT, CT, United States (KDXR) 41-22N 073-29W 139M
Apr 17, 2021 - 09:53 PM EDT / 2021.04.18 0153 UTC
Wind: from the SW (230 degrees) at 3 MPH (3 KT):0
Visibility: 10 mile(s):0
Sky conditions: overcast
Temperature: 46.9 F (8.3 C)
Dew Point: 36.0 F (2.2 C)
Relative Humidity: 65%
Pressure (altimeter): 29.82 in. Hg (1009 hPa)
ob: KDXR 180153Z 23003KT 10SM OVC065 08/02 A2982 RMK AO2 SLP099 T00830022
cycle: 2

Station Type Date Time Source
KDXR TAF UTC NOAA

Error!

Example: see airport list